createdAt,value
2023-02-03T00:01:07.650Z,8.89
2023-02-03T00:03:35.268Z,8.93
2023-02-03T00:06:01.895Z,8.93
2023-02-03T00:08:28.393Z,8.97
2023-02-03T00:10:54.762Z,8.96
2023-02-03T00:13:21.093Z,9.00
2023-02-03T00:15:47.542Z,8.92
2023-02-03T00:18:13.839Z,8.93
2023-02-03T00:20:41.424Z,9.07
2023-02-03T00:23:08.617Z,9.10
2023-02-03T00:25:35.256Z,9.11
2023-02-03T00:28:01.588Z,9.09
2023-02-03T00:30:28.306Z,8.98
2023-02-03T00:32:54.983Z,8.96
2023-02-03T00:35:21.349Z,9.06
2023-02-03T00:37:52.112Z,8.94
2023-02-03T00:40:18.622Z,8.95
2023-02-03T00:42:44.886Z,8.93
2023-02-03T00:45:11.174Z,9.07
2023-02-03T00:47:37.511Z,9.00
2023-02-03T00:50:04.125Z,8.95
2023-02-03T00:52:30.375Z,9.03
2023-02-03T00:54:57.988Z,8.99
2023-02-03T00:57:24.454Z,8.94
2023-02-03T00:59:50.712Z,9.04
2023-02-03T01:02:17.070Z,9.05
2023-02-03T01:04:43.435Z,9.21
2023-02-03T01:07:09.720Z,9.12
2023-02-03T01:09:36.623Z,9.07
2023-02-03T01:12:04.902Z,9.10
2023-02-03T01:14:31.585Z,9.19
2023-02-03T01:16:57.928Z,8.99
2023-02-03T01:19:24.253Z,9.01
2023-02-03T01:21:50.577Z,9.16
2023-02-03T01:24:16.909Z,9.23
2023-02-03T01:26:43.265Z,9.15
2023-02-03T01:29:10.979Z,9.10
2023-02-03T01:31:38.425Z,9.17
2023-02-03T01:34:05.445Z,9.07
2023-02-03T01:36:33.196Z,9.15
2023-02-03T01:39:01.549Z,9.15
2023-02-03T01:41:28.913Z,9.09
2023-02-03T01:43:56.048Z,9.19
2023-02-03T01:46:28.434Z,9.06
2023-02-03T01:48:57.681Z,9.09
2023-02-03T01:51:24.342Z,9.18
2023-02-03T01:53:51.518Z,9.17
2023-02-03T01:56:17.954Z,9.10
2023-02-03T01:58:45.886Z,9.17
2023-02-03T02:01:12.360Z,9.20
2023-02-03T02:03:40.999Z,9.10
2023-02-03T02:06:09.173Z,9.25
2023-02-03T02:08:38.613Z,9.22
2023-02-03T02:11:05.644Z,9.10
2023-02-03T02:13:32.951Z,9.19
2023-02-03T02:16:04.061Z,9.16
2023-02-03T02:18:48.288Z,9.17
2023-02-03T02:21:30.651Z,9.06
2023-02-03T02:24:08.295Z,9.13
2023-02-03T02:26:43.851Z,9.13
2023-02-03T02:29:25.596Z,9.15
2023-02-03T02:32:01.392Z,9.04
2023-02-03T02:34:36.391Z,9.11
2023-02-03T02:37:06.065Z,9.06
2023-02-03T02:39:38.411Z,9.11
2023-02-03T02:42:07.565Z,9.19
2023-02-03T02:44:35.865Z,9.09
2023-02-03T02:47:06.307Z,9.02
2023-02-03T02:49:35.615Z,9.09
2023-02-03T02:52:04.023Z,9.02
2023-02-03T02:54:31.398Z,8.98
2023-02-03T02:56:59.564Z,9.05
2023-02-03T02:59:25.873Z,9.00
2023-02-03T03:01:52.217Z,9.09
2023-02-03T03:04:21.964Z,9.04
2023-02-03T03:06:51.160Z,9.00
2023-02-03T03:09:21.399Z,9.09
2023-02-03T03:11:50.298Z,9.06
2023-02-03T03:14:18.826Z,9.06
2023-02-03T03:16:48.118Z,9.00
2023-02-03T03:19:16.739Z,9.01
2023-02-03T03:21:47.226Z,8.98
2023-02-03T03:24:16.615Z,9.05
2023-02-03T03:26:46.629Z,9.04
2023-02-03T03:29:16.909Z,9.06
2023-02-03T03:31:43.727Z,8.99
2023-02-03T03:34:10.993Z,8.96
2023-02-03T03:36:40.811Z,9.03
2023-02-03T03:39:12.145Z,9.03
2023-02-03T03:41:41.246Z,9.17
2023-02-03T03:44:11.102Z,9.09
2023-02-03T03:46:40.009Z,9.09
2023-02-03T03:49:07.158Z,9.07
2023-02-03T03:51:35.290Z,9.04
2023-02-03T03:54:05.482Z,9.02
2023-02-03T03:56:36.177Z,9.06
2023-02-03T03:59:03.863Z,9.08
2023-02-03T04:01:31.022Z,9.08
2023-02-03T04:03:59.564Z,9.09
2023-02-03T04:06:25.862Z,9.07
2023-02-03T04:08:52.149Z,9.19
2023-02-03T04:11:18.453Z,9.25
2023-02-03T04:13:46.052Z,9.25
2023-02-03T04:16:12.419Z,9.17
2023-02-03T04:18:38.700Z,9.21
2023-02-03T04:21:05.168Z,9.21
2023-02-03T04:23:31.498Z,9.13
2023-02-03T04:26:00.556Z,9.21
2023-02-03T04:28:26.834Z,9.21
2023-02-03T04:30:54.624Z,9.24
2023-02-03T04:33:20.914Z,9.13
2023-02-03T04:35:47.211Z,9.06
2023-02-03T04:38:13.462Z,9.13
2023-02-03T04:40:39.754Z,9.15
2023-02-03T04:43:06.613Z,9.10
2023-02-03T04:45:32.919Z,9.13
2023-02-03T04:48:00.519Z,9.11
2023-02-03T04:50:27.048Z,9.12
2023-02-03T04:52:53.496Z,9.15
2023-02-03T04:55:19.786Z,9.21
2023-02-03T04:57:46.081Z,9.17
2023-02-03T05:00:13.084Z,9.13
2023-02-03T05:02:39.375Z,9.21
2023-02-03T05:05:07.464Z,9.11
2023-02-03T05:07:33.738Z,9.19
2023-02-03T05:10:00.035Z,9.14
2023-02-03T05:12:26.325Z,9.17
2023-02-03T05:14:52.585Z,9.32
2023-02-03T05:17:18.869Z,9.32
2023-02-03T05:19:45.123Z,9.24
2023-02-03T05:22:12.766Z,9.29
2023-02-03T05:24:39.062Z,9.27
2023-02-03T05:27:05.343Z,9.27
2023-02-03T05:29:31.637Z,9.28
2023-02-03T05:31:57.969Z,9.22
2023-02-03T05:34:24.491Z,9.13
2023-02-03T05:36:50.787Z,9.18
2023-02-03T05:39:18.383Z,9.33
2023-02-03T05:41:44.654Z,9.32
2023-02-03T05:44:10.987Z,9.21
2023-02-03T05:46:37.282Z,9.17
2023-02-03T05:49:03.598Z,9.24
2023-02-03T05:51:29.891Z,9.27
2023-02-03T05:53:56.163Z,9.24
2023-02-03T05:56:23.809Z,9.23
2023-02-03T05:58:50.092Z,9.23
2023-02-03T06:01:16.351Z,9.19
2023-02-03T06:03:45.747Z,9.24
2023-02-03T06:06:12.587Z,9.22
2023-02-03T06:08:38.873Z,9.24
2023-02-03T06:11:05.134Z,9.18
2023-02-03T06:13:32.773Z,9.22
2023-02-03T06:15:59.032Z,9.27
2023-02-03T06:18:25.382Z,9.18
2023-02-03T06:20:51.666Z,9.29
2023-02-03T06:23:18.095Z,9.23
2023-02-03T06:25:44.445Z,9.29
2023-02-03T06:28:10.785Z,9.25
2023-02-03T06:30:38.640Z,9.26
2023-02-03T06:33:05.071Z,9.29
2023-02-03T06:35:31.408Z,9.32
2023-02-03T06:37:57.685Z,9.24
2023-02-03T06:40:23.988Z,9.40
2023-02-03T06:42:50.351Z,9.34
2023-02-03T06:45:17.043Z,9.31
2023-02-03T06:47:45.198Z,9.28
2023-02-03T06:50:12.642Z,9.29
2023-02-03T06:52:39.145Z,9.32
2023-02-03T06:55:05.839Z,9.25
2023-02-03T06:57:32.535Z,9.27
2023-02-03T06:59:58.822Z,9.24
2023-02-03T07:02:25.151Z,9.27
2023-02-03T07:04:52.850Z,9.29
2023-02-03T07:07:19.153Z,9.32
2023-02-03T07:09:45.433Z,9.30
2023-02-03T07:12:11.712Z,9.22
2023-02-03T07:14:37.990Z,9.26
2023-02-03T07:17:04.376Z,9.36
2023-02-03T07:19:31.789Z,9.45
2023-02-03T07:21:59.667Z,9.30
2023-02-03T07:24:26.083Z,9.49
2023-02-03T07:26:52.610Z,9.49
2023-02-03T07:29:19.161Z,9.44
2023-02-03T07:31:45.663Z,9.37
2023-02-03T07:34:12.675Z,9.27
2023-02-03T07:36:44.404Z,9.50
2023-02-03T07:39:12.065Z,9.43
2023-02-03T07:41:38.361Z,9.40
2023-02-03T07:44:05.138Z,9.45
2023-02-03T07:46:31.541Z,9.44
2023-02-03T07:48:57.845Z,9.44
2023-02-03T07:51:24.148Z,9.40
2023-02-03T07:53:50.456Z,9.43
2023-02-03T07:56:18.064Z,9.40
2023-02-03T07:58:44.348Z,9.39
2023-02-03T08:01:12.774Z,9.46
2023-02-03T08:03:39.181Z,9.35
2023-02-03T08:06:05.749Z,9.38
2023-02-03T08:08:32.024Z,9.44
2023-02-03T08:10:58.652Z,9.50
2023-02-03T08:13:26.650Z,9.46
2023-02-03T08:15:53.029Z,9.48
2023-02-03T08:18:19.393Z,9.40
2023-02-03T08:20:46.612Z,9.39
2023-02-03T08:23:12.947Z,9.40
2023-02-03T08:25:39.220Z,9.43
2023-02-03T08:28:05.570Z,9.49
2023-02-03T08:30:33.307Z,9.49
2023-02-03T08:32:59.648Z,9.59
2023-02-03T08:35:25.940Z,9.52
2023-02-03T08:37:52.213Z,9.58
2023-02-03T08:40:18.679Z,9.64
2023-02-03T08:42:45.021Z,9.58
2023-02-03T08:45:12.549Z,9.60
2023-02-03T08:47:40.618Z,9.69
2023-02-03T08:50:08.513Z,9.63
2023-02-03T08:52:34.964Z,9.62
2023-02-03T08:55:01.267Z,9.68
2023-02-03T08:57:27.621Z,9.78
2023-02-03T08:59:53.945Z,9.78
2023-02-03T09:02:20.291Z,9.85
2023-02-03T09:04:48.008Z,9.78
2023-02-03T09:07:14.303Z,9.76
2023-02-03T09:09:40.743Z,9.80
2023-02-03T09:12:07.107Z,9.74
2023-02-03T09:14:33.669Z,9.84
2023-02-03T09:17:00.078Z,9.82
2023-02-03T09:19:26.412Z,9.96
2023-02-03T09:21:54.133Z,9.98
2023-02-03T09:24:20.867Z,9.93
2023-02-03T09:26:47.178Z,9.91
2023-02-03T09:29:13.483Z,9.96
2023-02-03T09:31:39.902Z,9.99
2023-02-03T09:34:06.316Z,10.14
2023-02-03T09:36:33.210Z,10.00
2023-02-03T09:39:00.923Z,10.10
2023-02-03T09:41:36.098Z,10.15
2023-02-03T09:44:08.588Z,9.97
2023-02-03T09:46:38.069Z,10.07
2023-02-03T09:49:08.105Z,10.12
2023-02-03T09:51:36.482Z,10.02
2023-02-03T09:54:07.786Z,10.10
2023-02-03T09:56:36.059Z,10.01
2023-02-03T09:59:03.261Z,9.90
2023-02-03T10:01:34.313Z,9.90
2023-02-03T10:04:04.243Z,9.97
2023-02-03T10:06:33.048Z,9.98
2023-02-03T10:09:04.389Z,10.15
2023-02-03T10:11:39.738Z,10.08
2023-02-03T10:14:16.008Z,10.02
2023-02-03T10:16:48.800Z,10.17
2023-02-03T10:19:17.035Z,10.06
2023-02-03T10:21:44.748Z,10.16
2023-02-03T10:24:13.839Z,10.16
2023-02-03T10:26:41.938Z,10.17
2023-02-03T10:29:16.455Z,10.19
2023-02-03T10:31:43.884Z,10.30
2023-02-03T10:34:11.234Z,10.27
2023-02-03T10:36:45.617Z,10.33
2023-02-03T10:39:17.730Z,10.40
2023-02-03T10:41:47.945Z,10.51
2023-02-03T10:44:15.020Z,10.39
2023-02-03T10:46:43.217Z,10.47
2023-02-03T10:49:11.906Z,10.49
2023-02-03T10:51:40.369Z,10.49
2023-02-03T10:54:25.761Z,10.48
2023-02-03T10:56:55.145Z,10.53
2023-02-03T10:59:27.834Z,10.62
2023-02-03T11:01:54.589Z,10.61
2023-02-03T11:04:24.449Z,10.55
2023-02-03T11:06:54.172Z,10.64
2023-02-03T11:09:22.183Z,10.72
2023-02-03T11:11:48.521Z,10.64
2023-02-03T11:14:16.825Z,10.71
2023-02-03T11:16:44.592Z,10.72
2023-02-03T11:19:15.553Z,10.74
2023-02-03T11:21:43.441Z,10.68
2023-02-03T11:24:15.681Z,10.75
2023-02-03T11:26:43.989Z,10.74
2023-02-03T11:29:16.559Z,10.63
2023-02-03T11:31:47.054Z,10.64
2023-02-03T11:34:16.152Z,10.66
2023-02-03T11:36:42.466Z,10.71
2023-02-03T11:39:10.261Z,10.70
2023-02-03T11:41:37.342Z,10.64
2023-02-03T11:44:10.168Z,10.78
2023-02-03T11:46:37.467Z,10.63
2023-02-03T11:49:11.624Z,10.60
2023-02-03T11:51:43.592Z,10.77
2023-02-03T11:54:18.657Z,10.69
2023-02-03T11:56:54.843Z,10.70
2023-02-03T11:59:29.745Z,10.71
2023-02-03T12:02:03.149Z,10.68
2023-02-03T12:04:38.601Z,10.73
2023-02-03T12:07:13.691Z,10.92
2023-02-03T12:09:43.901Z,10.65
2023-02-03T12:12:18.310Z,10.71
2023-02-03T12:14:49.790Z,10.78
2023-02-03T12:17:40.003Z,10.68
2023-02-03T12:20:18.438Z,10.74
2023-02-03T12:22:50.709Z,10.81
2023-02-03T12:25:24.021Z,10.91
2023-02-03T12:27:56.216Z,10.82
2023-02-03T12:30:25.379Z,10.74
2023-02-03T12:32:53.748Z,10.66
2023-02-03T12:35:25.191Z,10.69
2023-02-03T12:37:56.617Z,10.63
2023-02-03T12:40:26.046Z,10.69
2023-02-03T12:42:55.590Z,10.70
2023-02-03T12:45:23.756Z,10.65
2023-02-03T12:47:52.486Z,10.67
2023-02-03T12:50:20.183Z,10.69
2023-02-03T12:52:52.363Z,10.78
2023-02-03T12:55:22.045Z,10.66
2023-02-03T12:57:51.122Z,10.70
2023-02-03T13:00:21.540Z,10.82
2023-02-03T13:02:56.494Z,10.79
2023-02-03T13:05:24.883Z,10.73
2023-02-03T13:07:56.984Z,10.86
2023-02-03T13:10:25.946Z,10.70
2023-02-03T13:12:55.913Z,10.74
2023-02-03T13:15:24.951Z,10.78
2023-02-03T13:17:55.089Z,10.94
2023-02-03T13:20:22.322Z,10.67
2023-02-03T13:22:48.648Z,10.62
2023-02-03T13:25:20.538Z,10.87
2023-02-03T13:27:50.116Z,10.73
2023-02-03T13:30:28.941Z,10.79
2023-02-03T13:33:08.505Z,10.84
2023-02-03T13:35:46.428Z,10.81
2023-02-03T13:38:36.964Z,10.79
2023-02-03T13:41:07.590Z,10.82
2023-02-03T13:43:38.973Z,10.91
2023-02-03T13:46:08.844Z,10.86
2023-02-03T13:48:35.687Z,10.88
2023-02-03T13:51:03.675Z,10.97
2023-02-03T13:53:34.243Z,10.86
2023-02-03T13:56:02.347Z,10.91
2023-02-03T13:58:31.520Z,11.07
2023-02-03T14:01:04.115Z,10.99
2023-02-03T14:03:45.826Z,11.04
2023-02-03T14:06:27.051Z,11.04
2023-02-03T14:08:58.301Z,11.03
2023-02-03T14:11:40.733Z,11.02
2023-02-03T14:14:25.671Z,11.11
2023-02-03T14:16:54.996Z,11.18
2023-02-03T14:19:36.311Z,11.24
2023-02-03T14:22:04.630Z,11.34
2023-02-03T14:24:32.115Z,11.40
2023-02-03T14:26:59.892Z,11.25
2023-02-03T14:29:27.264Z,11.18
2023-02-03T14:31:59.602Z,11.33
2023-02-03T14:34:37.649Z,11.26
2023-02-03T14:37:12.452Z,11.31
2023-02-03T14:39:46.075Z,11.39
2023-02-03T14:42:17.273Z,11.30
2023-02-03T14:44:49.254Z,11.34
2023-02-03T14:47:23.939Z,11.30
2023-02-03T14:50:07.920Z,11.37
2023-02-03T14:52:42.754Z,11.25
2023-02-03T14:55:15.936Z,11.13
2023-02-03T14:57:45.294Z,11.23
2023-02-03T15:00:26.443Z,11.20
2023-02-03T15:03:11.692Z,11.13
2023-02-03T15:05:40.524Z,11.10
2023-02-03T15:08:21.701Z,11.20
2023-02-03T15:10:47.989Z,11.15
2023-02-03T15:13:23.692Z,11.05
2023-02-03T15:15:52.465Z,11.08
2023-02-03T15:18:22.883Z,11.05
2023-02-03T15:20:54.138Z,10.93
2023-02-03T15:23:21.133Z,11.01
2023-02-03T15:25:53.304Z,10.90
2023-02-03T15:28:20.768Z,11.00
2023-02-03T15:30:49.568Z,10.94
2023-02-03T15:33:18.167Z,10.87
2023-02-03T15:35:46.084Z,10.71
2023-02-03T15:38:15.421Z,10.64
2023-02-03T15:40:43.513Z,10.52
2023-02-03T15:43:14.960Z,10.55
2023-02-03T15:45:44.206Z,10.48
2023-02-03T15:48:13.715Z,10.40
2023-02-03T15:50:42.692Z,10.47
2023-02-03T15:53:10.489Z,10.36
2023-02-03T15:55:40.715Z,10.31
2023-02-03T15:58:15.042Z,10.49
2023-02-03T16:00:41.404Z,10.23
2023-02-03T16:03:16.016Z,10.23
2023-02-03T16:05:42.435Z,10.40
2023-02-03T16:08:28.042Z,10.20
2023-02-03T16:10:55.748Z,9.96
2023-02-03T16:13:23.739Z,10.06
2023-02-03T16:15:58.388Z,9.98
2023-02-03T16:18:24.774Z,9.99
2023-02-03T16:20:51.443Z,9.83
2023-02-03T16:23:19.164Z,9.80
2023-02-03T16:26:00.373Z,9.67
2023-02-03T16:28:30.294Z,9.74
2023-02-03T16:30:59.958Z,9.85
2023-02-03T16:33:26.351Z,9.76
2023-02-03T16:35:52.661Z,9.69
2023-02-03T16:38:18.995Z,9.83
2023-02-03T16:40:47.501Z,9.84
2023-02-03T16:43:14.688Z,9.81
2023-02-03T16:45:42.434Z,9.94
2023-02-03T16:48:10.093Z,9.94
2023-02-03T16:50:39.034Z,9.83
2023-02-03T16:53:06.171Z,9.74
2023-02-03T16:55:32.594Z,9.87
2023-02-03T16:57:58.942Z,9.88
2023-02-03T17:00:25.307Z,9.86
2023-02-03T17:02:52.971Z,9.79
2023-02-03T17:05:19.276Z,9.79
2023-02-03T17:07:45.606Z,9.79
2023-02-03T17:10:11.958Z,9.78
2023-02-03T17:12:38.282Z,9.73
2023-02-03T17:15:04.836Z,9.71
2023-02-03T17:17:31.157Z,9.57
2023-02-03T17:19:58.916Z,9.61
2023-02-03T17:22:25.239Z,9.62
2023-02-03T17:24:51.531Z,9.59
2023-02-03T17:27:17.839Z,9.52
2023-02-03T17:29:44.140Z,9.52
2023-02-03T17:32:10.616Z,9.46
2023-02-03T17:34:36.993Z,9.35
2023-02-03T17:37:04.712Z,9.39
2023-02-03T17:55:41.498Z,9.17
2023-02-03T17:58:07.845Z,9.23
2023-02-03T18:00:34.209Z,9.22
2023-02-03T18:03:00.723Z,9.30
2023-02-03T18:05:27.093Z,9.39
2023-02-03T18:07:53.500Z,9.56
2023-02-03T18:10:21.305Z,9.75
2023-02-03T18:12:47.785Z,9.64
2023-02-03T18:15:14.120Z,9.68
2023-02-03T18:17:40.432Z,9.65
2023-02-03T18:20:07.204Z,9.75
2023-02-03T18:22:33.575Z,10.06
2023-02-03T18:24:59.889Z,9.96
2023-02-03T18:27:27.626Z,9.83
2023-02-03T18:29:53.946Z,9.80
2023-02-03T18:32:20.274Z,9.81
2023-02-03T18:34:46.778Z,9.77
2023-02-03T18:37:13.171Z,9.84
2023-02-03T18:39:39.510Z,9.93
2023-02-03T18:42:05.898Z,9.85
2023-02-03T18:44:33.548Z,9.88
2023-02-03T18:46:59.842Z,9.78
2023-02-03T18:49:26.201Z,9.75
2023-02-03T18:51:52.541Z,9.76
2023-02-03T18:54:18.866Z,9.79
2023-02-03T18:56:46.166Z,9.75
2023-02-03T18:59:12.523Z,9.88
2023-02-03T19:01:40.373Z,9.93
2023-02-03T19:04:06.985Z,9.96
2023-02-03T19:06:34.368Z,10.03
2023-02-03T19:09:00.726Z,9.97
2023-02-03T19:11:27.087Z,10.03
2023-02-03T19:13:53.396Z,9.98
2023-02-03T19:16:19.822Z,10.00
2023-02-03T19:18:47.727Z,10.01
2023-02-03T19:21:14.525Z,9.97
2023-02-03T19:23:41.560Z,10.11
2023-02-03T19:26:08.315Z,9.98
2023-02-03T19:28:35.552Z,10.03
2023-02-03T19:31:07.608Z,10.00
2023-02-03T19:33:35.024Z,9.90
2023-02-03T19:36:02.968Z,9.96
2023-02-03T19:38:29.320Z,10.05
2023-02-03T19:40:55.628Z,10.06
2023-02-03T19:43:21.962Z,10.01
2023-02-03T19:45:48.277Z,9.92
2023-02-03T19:48:14.595Z,9.85
2023-02-03T19:50:40.894Z,9.97
2023-02-03T19:53:08.674Z,10.05
2023-02-03T19:55:35.000Z,9.89
2023-02-03T19:58:01.356Z,10.04
2023-02-03T20:00:28.370Z,10.06
2023-02-03T20:02:54.878Z,10.13
2023-02-03T20:05:21.202Z,9.96
2023-02-03T20:07:47.570Z,9.98
2023-02-03T20:10:15.417Z,9.78
2023-02-03T20:12:42.048Z,9.75
2023-02-03T20:15:08.421Z,9.81
2023-02-03T20:17:34.786Z,9.71
2023-02-03T20:20:01.183Z,9.58
2023-02-03T20:22:27.502Z,9.57
2023-02-03T20:24:53.803Z,9.56
2023-02-03T20:27:21.466Z,9.55
2023-02-03T20:29:47.788Z,9.52
2023-02-03T20:32:14.103Z,9.45
2023-02-03T20:34:40.422Z,9.37
2023-02-03T20:37:06.711Z,9.44
2023-02-03T20:39:33.107Z,9.47
2023-02-03T20:41:59.742Z,9.49
2023-02-03T20:44:27.432Z,9.48
2023-02-03T20:46:53.793Z,9.53
2023-02-03T20:49:20.127Z,9.65
2023-02-03T20:51:46.550Z,9.59
2023-02-03T20:54:15.368Z,9.83
2023-02-03T20:56:41.699Z,9.62
2023-02-03T20:59:09.649Z,9.58
2023-02-03T21:01:37.351Z,9.56
2023-02-03T21:04:03.698Z,9.52
2023-02-03T21:06:31.292Z,9.37
2023-02-03T21:09:01.600Z,9.46
2023-02-03T21:11:29.432Z,9.38
2023-02-03T21:13:55.799Z,9.39
2023-02-03T21:16:22.982Z,9.42
2023-02-03T21:18:51.677Z,9.34
2023-02-03T21:21:19.024Z,9.44
2023-02-03T21:23:47.530Z,9.52
2023-02-03T21:26:18.124Z,9.35
2023-02-03T21:28:44.729Z,9.23
2023-02-03T21:31:18.208Z,9.28
2023-02-03T21:33:44.662Z,9.40
2023-02-03T21:36:15.572Z,9.36
2023-02-03T21:38:41.915Z,9.33
2023-02-03T21:41:11.699Z,9.30
2023-02-03T21:43:38.016Z,9.31
2023-02-03T21:46:04.483Z,9.33
2023-02-03T21:48:31.812Z,9.34
2023-02-03T21:51:00.391Z,9.40
2023-02-03T21:53:28.987Z,9.26
2023-02-03T21:55:55.285Z,9.19
2023-02-03T21:58:22.793Z,9.38
2023-02-03T22:00:49.578Z,9.30
2023-02-03T22:03:22.809Z,9.26
2023-02-03T22:05:49.114Z,9.19
2023-02-03T22:08:17.383Z,9.19
2023-02-03T22:10:45.076Z,9.12
2023-02-03T22:13:11.401Z,9.18
2023-02-03T22:15:37.834Z,9.24
2023-02-03T22:18:04.409Z,9.01
2023-02-03T22:20:31.065Z,8.95
2023-02-03T22:22:57.552Z,9.13
2023-02-03T22:25:23.939Z,9.10
2023-02-03T22:27:53.018Z,8.94
2023-02-03T22:30:19.589Z,8.91
2023-02-03T22:32:46.263Z,8.86
2023-02-03T22:35:12.599Z,8.76
2023-02-03T22:37:38.984Z,8.79
2023-02-03T22:40:05.762Z,8.64
2023-02-03T22:42:32.050Z,8.84
2023-02-03T22:44:59.682Z,8.74
2023-02-03T22:47:25.963Z,8.63
2023-02-03T22:49:52.355Z,8.59
2023-02-03T22:52:18.653Z,8.60
2023-02-03T22:54:44.945Z,8.56
2023-02-03T22:57:11.255Z,8.58
2023-02-03T22:59:37.575Z,8.47
2023-02-03T23:02:05.258Z,8.38
2023-02-03T23:04:31.576Z,8.54
2023-02-03T23:06:57.898Z,8.52
2023-02-03T23:09:24.201Z,8.43
2023-02-03T23:11:50.529Z,8.35
2023-02-03T23:14:16.826Z,8.31
2023-02-03T23:16:43.356Z,8.36
2023-02-03T23:19:11.057Z,8.22
2023-02-03T23:21:37.426Z,8.36
2023-02-03T23:24:04.092Z,8.31
2023-02-03T23:26:30.382Z,8.46
2023-02-03T23:28:56.720Z,8.35
2023-02-03T23:31:23.154Z,8.41
2023-02-03T23:33:49.494Z,8.30
2023-02-03T23:36:17.184Z,8.19
2023-02-03T23:38:43.482Z,8.17
2023-02-03T23:41:09.817Z,8.22
2023-02-03T23:43:36.105Z,8.04
2023-02-03T23:46:02.487Z,8.07
2023-02-03T23:48:28.888Z,8.08
2023-02-03T23:50:55.204Z,8.12
2023-02-03T23:53:22.879Z,8.17
2023-02-03T23:55:49.166Z,8.10
2023-02-03T23:58:15.474Z,7.95
